Time;durP1;ratioP1;P1;durP2;ratioP2;P2;SDS_P1;SDS_P2;PMS_P1;PMS_P2;Temp;Humidity;BMP_temperature;BMP_pressure;BME280_temperature;BME280_humidity;BME280_pressure;Samples;Min_cycle;Max_cycle;Signal;HPM_P1;HPM_P2
2022/03/24 00:00:28;;;;;;;22.70;20.40;;;;;;;8.50;46.11;101797.97;5072400;28;20224;-75
2022/03/24 00:02:54;;;;;;;23.37;20.37;;;;;;;8.47;46.75;101779.69;5072615;28;20620;-75
2022/03/24 00:05:21;;;;;;;22.83;20.50;;;;;;;8.48;47.90;101759.75;5071967;28;20678;-75
2022/03/24 00:07:47;;;;;;;22.90;20.40;;;;;;;8.48;46.42;101751.94;5072078;28;20212;-75
2022/03/24 00:10:14;;;;;;;23.17;20.30;;;;;;;8.44;47.21;101742.34;5071981;28;20216;-75
2022/03/24 00:12:41;;;;;;;21.83;19.83;;;;;;;8.55;47.57;101730.34;5071511;28;20212;-75
2022/03/24 00:15:10;;;;;;;24.60;19.87;;;;;;;8.52;47.44;101733.78;5071844;28;20254;-75
2022/03/24 00:17:36;;;;;;;22.17;20.00;;;;;;;8.51;47.30;101725.97;5072191;28;20235;-75
2022/03/24 00:20:04;;;;;;;21.77;19.50;;;;;;;8.52;47.19;101720.78;5071796;28;20734;-75
2022/03/24 00:22:31;;;;;;;22.03;19.73;;;;;;;8.54;47.73;101721.66;5072241;28;20250;-75
2022/03/24 00:24:58;;;;;;;22.83;19.70;;;;;;;8.53;47.04;101725.09;5071880;28;20229;-75
2022/03/24 00:27:25;;;;;;;26.20;20.73;;;;;;;8.56;47.91;101724.25;5071988;28;20212;-75
2022/03/24 00:29:52;;;;;;;22.60;19.97;;;;;;;8.49;48.51;101699.91;5071797;28;20232;-75
2022/03/24 00:32:20;;;;;;;26.13;20.27;;;;;;;8.54;49.31;101682.63;5071970;28;20211;-75
2022/03/24 00:34:47;;;;;;;20.67;18.57;;;;;;;8.61;47.64;101682.69;5071876;28;20361;-75
2022/03/24 00:37:13;;;;;;;22.40;20.27;;;;;;;8.59;47.74;101700.88;5071687;28;20674;-75
2022/03/24 00:39:40;;;;;;;23.47;20.60;;;;;;;8.53;47.62;101714.69;5071709;28;20269;-75
2022/03/24 00:42:10;;;;;;;24.70;20.07;;;;;;;8.55;48.11;101712.13;5071872;28;20570;-75
2022/03/24 00:44:37;;;;;;;23.43;21.03;;;;;;;8.52;46.91;101730.28;5071512;28;20605;-75
2022/03/24 00:47:04;;;;;;;23.13;20.63;;;;;;;8.32;46.86;101746.56;5071786;28;20205;-75
2022/03/24 00:49:32;;;;;;;26.33;20.97;;;;;;;8.18;47.31;101735.09;5071880;28;20239;-75
2022/03/24 00:51:58;;;;;;;23.77;21.03;;;;;;;8.18;47.86;101726.41;5071988;28;20208;-75
2022/03/24 00:54:25;;;;;;;24.63;21.50;;;;;;;8.12;49.19;101704.66;5072047;28;20204;-75
2022/03/24 00:56:52;;;;;;;24.00;21.10;;;;;;;8.13;48.01;101664.81;5071700;28;20299;-75
2022/03/24 00:59:18;;;;;;;29.63;21.40;;;;;;;8.13;47.43;101677.81;5071647;28;20278;-75
2022/03/24 01:01:45;;;;;;;24.87;21.17;;;;;;;8.12;47.88;101709.00;5071220;28;20624;-75
2022/03/24 01:04:12;;;;;;;28.67;20.67;;;;;;;8.11;47.48;101705.53;5071498;28;20300;-75
2022/03/24 01:06:40;;;;;;;31.60;22.90;;;;;;;8.14;46.46;101695.16;5071626;28;20209;-75
2022/03/24 01:09:07;;;;;;;22.97;20.50;;;;;;;8.14;47.19;101733.31;5071420;28;20687;-75
2022/03/24 01:11:34;;;;;;;29.40;22.53;;;;;;;8.05;46.47;101743.63;5071452;28;20254;-75
2022/03/24 01:14:01;;;;;;;27.30;23.37;;;;;;;7.96;46.14;101734.81;5071257;28;20208;-75
2022/03/24 01:16:27;;;;;;;24.77;21.87;;;;;;;7.85;46.96;101736.44;5071607;28;20209;-75
2022/03/24 01:18:54;;;;;;;29.83;24.10;;;;;;;7.48;47.43;101727.25;5071485;28;20225;-75
2022/03/24 01:21:20;;;;;;;27.57;23.43;;;;;;;7.27;48.87;101707.88;5071336;28;20239;-75
2022/03/24 01:23:48;;;;;;;30.83;24.43;;;;;;;6.80;49.11;101684.66;5072637;28;20224;-75
2022/03/24 01:26:17;;;;;;;26.00;23.27;;;;;;;6.82;51.54;101636.25;5075389;28;20208;-75
2022/03/24 01:28:44;;;;;;;29.53;24.43;;;;;;;7.00;51.09;101590.63;5075412;28;20229;-75
2022/03/24 01:31:11;;;;;;;26.47;23.63;;;;;;;7.14;50.28;101573.53;5075448;28;20197;-75
2022/03/24 01:33:38;;;;;;;25.67;22.60;;;;;;;7.12;49.88;101589.09;5074902;28;20735;-74
2022/03/24 01:36:06;;;;;;;33.83;23.13;;;;;;;7.12;49.80;101612.47;5075039;28;20208;-75
2022/03/24 01:38:32;;;;;;;29.40;22.83;;;;;;;7.06;49.84;101627.94;5074725;28;20232;-75
2022/03/24 01:41:00;;;;;;;35.70;23.47;;;;;;;7.00;49.52;101614.88;5074843;28;20257;-75
2022/03/24 01:43:27;;;;;;;25.20;22.57;;;;;;;6.81;49.32;101628.44;5075123;28;20255;-75
2022/03/24 01:45:53;;;;;;;28.43;23.07;;;;;;;6.67;49.34;101638.59;5074864;28;20250;-75
2022/03/24 01:48:20;;;;;;;31.20;23.93;;;;;;;6.66;50.40;101626.44;5074876;28;20584;-75
2022/03/24 01:50:48;;;;;;;29.73;23.67;;;;;;;6.71;49.89;101611.84;5075096;28;20262;-75
2022/03/24 01:53:18;;;;;;;28.17;24.10;;;;;;;6.79;51.13;101591.19;5074680;28;20249;-74
2022/03/24 01:55:45;;;;;;;28.47;24.07;;;;;;;6.80;51.24;101587.75;5074503;28;20216;-74
2022/03/24 01:58:13;;;;;;;26.70;23.90;;;;;;;6.70;50.94;101577.25;5074667;28;20277;-75
2022/03/24 02:00:40;;;;;;;28.77;23.40;;;;;;;6.71;52.35;101554.75;5074900;28;20201;-74
2022/03/24 02:03:07;;;;;;;29.93;24.40;;;;;;;6.76;51.96;101534.94;5074302;28;20294;-75
2022/03/24 02:05:36;;;;;;;28.33;24.80;;;;;;;6.65;52.02;101541.69;5074177;28;20640;-75
2022/03/24 02:08:03;;;;;;;31.27;23.37;;;;;;;6.62;51.88;101526.06;5074524;28;20201;-74
2022/03/24 02:10:30;;;;;;;28.07;23.40;;;;;;;6.61;52.55;101526.94;5074396;28;20628;-74
2022/03/24 02:12:57;;;;;;;30.00;23.33;;;;;;;6.65;53.01;101502.78;5074494;28;20204;-74
2022/03/24 02:15:26;;;;;;;25.97;23.07;;;;;;;6.43;52.74;101512.84;5074187;28;20207;-75
2022/03/24 02:17:53;;;;;;;34.47;24.70;;;;;;;6.34;53.35;101495.41;5074112;28;20204;-74
2022/03/24 02:20:19;;;;;;;28.70;24.03;;;;;;;6.42;53.65;101473.91;5074404;28;20228;-75
2022/03/24 02:22:48;;;;;;;28.37;22.70;;;;;;;6.50;54.34;101449.84;5074163;28;20574;-75
2022/03/24 02:25:14;;;;;;;26.33;22.63;;;;;;;6.53;53.84;101455.06;5073860;28;20694;-75
2022/03/24 02:27:41;;;;;;;28.97;23.67;;;;;;;6.48;53.04;101467.09;5074580;28;20205;-75
2022/03/24 02:30:10;;;;;;;27.30;24.20;;;;;;;6.36;52.98;101485.03;5074037;28;20236;-75
2022/03/24 02:32:37;;;;;;;29.83;23.00;;;;;;;6.36;52.88;101487.63;5073842;28;20209;-75
2022/03/24 02:35:04;;;;;;;28.73;22.07;;;;;;;6.43;52.99;101484.31;5073186;28;20204;-74
2022/03/24 02:37:31;;;;;;;29.93;24.30;;;;;;;6.41;52.20;101504.16;5073949;28;20208;-75
2022/03/24 02:40:00;;;;;;;28.63;23.17;;;;;;;6.38;51.90;101518.78;5073645;28;20213;-74
2022/03/24 02:42:29;;;;;;;31.23;22.80;;;;;;;6.10;53.35;101495.88;5074266;28;20209;-75
2022/03/24 02:44:59;;;;;;;25.47;22.70;;;;;;;6.06;53.96;101472.47;5073499;28;20224;-75
2022/03/24 02:47:25;;;;;;;33.43;23.40;;;;;;;6.02;53.93;101474.16;5074057;28;20212;-74
2022/03/24 02:49:54;;;;;;;27.40;24.53;;;;;;;5.76;54.39;101451.22;5073933;28;20282;-75
2022/03/24 02:52:21;;;;;;;23.57;21.20;;;;;;;5.61;55.63;101417.31;5073752;28;20201;-74
2022/03/24 02:54:47;;;;;;;30.30;22.67;;;;;;;5.72;56.13;101395.03;5073538;28;20262;-75
2022/03/24 02:57:15;;;;;;;32.87;23.90;;;;;;;5.84;55.16;101386.59;5073390;28;20240;-75
2022/03/24 02:59:42;;;;;;;26.70;23.53;;;;;;;5.75;55.30;101409.78;5073362;28;20635;-75
2022/03/24 03:02:13;;;;;;;33.60;24.07;;;;;;;5.66;55.26;101420.84;5073272;28;20207;-75
2022/03/24 03:04:40;;;;;;;26.50;23.67;;;;;;;5.47;56.10;101416.19;5073189;28;20645;-75
2022/03/24 03:07:07;;;;;;;32.83;23.00;;;;;;;5.51;55.83;101405.03;5073359;28;20204;-75
2022/03/24 03:09:35;;;;;;;26.30;23.60;;;;;;;5.37;56.61;101391.84;5072999;28;20228;-75
2022/03/24 03:12:02;;;;;;;28.90;22.40;;;;;;;5.25;57.22;101374.41;5073494;28;20209;-75
2022/03/24 03:14:30;;;;;;;26.83;21.97;;;;;;;5.15;57.25;101352.66;5073431;28;20204;-75
2022/03/24 03:16:56;;;;;;;24.63;21.93;;;;;;;5.37;57.71;101348.72;5073227;28;20581;-74
2022/03/24 03:19:24;;;;;;;31.07;22.27;;;;;;;5.49;57.65;101336.81;5073119;28;20231;-75
2022/03/24 03:21:51;;;;;;;32.63;22.17;;;;;;;5.63;56.70;101350.88;5073145;28;20217;-75
2022/03/24 03:24:18;;;;;;;29.43;22.97;;;;;;;5.73;56.35;101376.06;5072615;28;20294;-74
2022/03/24 03:26:46;;;;;;;30.60;22.63;;;;;;;5.78;55.68;101395.13;5073197;28;20263;-75
2022/03/24 03:29:14;;;;;;;28.17;23.97;;;;;;;5.80;55.37;101425.38;5073048;28;20220;-76
2022/03/24 03:31:41;;;;;;;26.30;23.03;;;;;;;5.73;55.13;101432.19;5072997;28;20391;-75
2022/03/24 03:34:09;;;;;;;24.80;22.20;;;;;;;5.70;55.52;101432.13;5072688;28;20205;-75
2022/03/24 03:36:37;;;;;;;30.33;23.50;;;;;;;5.61;55.96;101422.50;5072991;28;20213;-75
2022/03/24 03:39:04;;;;;;;25.40;22.70;;;;;;;5.45;56.80;101408.41;5072425;28;20225;-75
2022/03/24 03:41:30;;;;;;;28.50;22.93;;;;;;;5.30;57.01;101393.44;5072624;28;20595;-75
2022/03/24 03:43:57;;;;;;;29.83;23.70;;;;;;;5.27;57.08;101382.16;5072353;28;20772;-75
2022/03/24 03:46:25;;;;;;;30.47;23.97;;;;;;;5.24;57.12;101374.38;5072542;28;20215;-75
2022/03/24 03:48:53;;;;;;;33.93;25.60;;;;;;;5.21;57.48;101377.75;5071954;28;20281;-74
2022/03/24 03:51:19;;;;;;;30.83;23.77;;;;;;;5.15;57.67;101369.88;5072291;28;20204;-75
2022/03/24 03:53:46;;;;;;;29.43;24.73;;;;;;;5.08;57.93;101360.28;5072139;28;20670;-75
2022/03/24 03:56:13;;;;;;;34.00;24.83;;;;;;;4.92;58.55;101341.00;5072485;28;20208;-75
2022/03/24 03:58:40;;;;;;;31.93;25.33;;;;;;;4.87;59.04;101324.50;5072183;28;20785;-74
2022/03/24 04:01:08;;;;;;;29.27;23.30;;;;;;;4.99;58.14;101332.50;5072583;28;20208;-74
2022/03/24 04:03:36;;;;;;;28.93;24.53;;;;;;;5.14;57.96;101335.38;5071782;28;20208;-75
2022/03/24 04:06:06;;;;;;;30.10;23.13;;;;;;;5.26;57.71;101357.16;5072336;28;20228;-75
2022/03/24 04:08:33;;;;;;;34.73;23.67;;;;;;;5.29;57.01;101371.03;5072043;28;20229;-75
2022/03/24 04:11:00;;;;;;;27.60;23.13;;;;;;;5.35;57.02;101383.16;5072193;28;20201;-75
2022/03/24 04:13:28;;;;;;;24.80;22.10;;;;;;;5.38;56.53;101403.94;5072131;28;20197;-75
2022/03/24 04:15:54;;;;;;;28.27;22.90;;;;;;;5.37;56.75;101399.59;5071769;28;20240;-75
2022/03/24 04:18:22;;;;;;;27.80;22.90;;;;;;;5.38;56.79;101398.78;5072266;28;20662;-75
2022/03/24 04:20:49;;;;;;;25.73;22.43;;;;;;;5.25;57.20;101391.63;5072207;28;20269;-75
2022/03/24 04:23:17;;;;;;;26.17;22.23;;;;;;;5.12;57.95;101380.19;5072152;28;20620;-75
2022/03/24 04:25:43;;;;;;;31.60;23.47;;;;;;;5.15;57.47;101365.59;5072200;28;20254;-75
2022/03/24 04:28:10;;;;;;;27.70;23.03;;;;;;;5.11;57.38;101371.56;5071945;28;20204;-74
2022/03/24 04:30:37;;;;;;;26.53;22.37;;;;;;;5.06;57.70;101373.19;5072016;28;20216;-74
2022/03/24 04:33:04;;;;;;;27.67;21.83;;;;;;;5.18;57.77;101373.41;5072096;28;20258;-75
2022/03/24 04:35:31;;;;;;;28.00;21.50;;;;;;;5.13;58.02;101376.75;5071869;28;20274;-75
2022/03/24 04:37:58;;;;;;;25.10;20.90;;;;;;;5.27;57.71;101367.53;5071934;28;20573;-75
2022/03/24 04:40:26;;;;;;;25.53;19.80;;;;;;;5.41;57.55;101367.78;5071670;28;20223;-75
2022/03/24 04:42:54;;;;;;;23.27;20.57;;;;;;;5.49;57.32;101386.00;5071683;28;20262;-75
2022/03/24 04:45:22;;;;;;;27.87;20.53;;;;;;;5.54;56.71;101385.25;5071421;28;20712;-74
2022/03/24 04:47:49;;;;;;;24.13;20.57;;;;;;;5.58;56.67;101399.97;5071659;28;20670;-75
2022/03/24 04:50:18;;;;;;;30.13;21.07;;;;;;;5.62;56.45;101413.00;5071774;28;20225;-74
2022/03/24 04:52:45;;;;;;;25.03;21.27;;;;;;;5.67;56.90;101403.56;5072024;28;20291;-74
2022/03/24 04:55:11;;;;;;;24.03;21.33;;;;;;;5.70;55.98;101412.28;5071343;28;20258;-75
2022/03/24 04:57:39;;;;;;;25.57;19.80;;;;;;;5.62;55.97;101429.41;5071407;28;20735;-75
2022/03/24 05:00:08;;;;;;;29.00;21.73;;;;;;;5.62;55.96;101434.59;5075368;28;20286;-75
2022/03/24 05:02:35;;;;;;;33.33;21.07;;;;;;;5.65;56.62;101437.25;5075458;28;20626;-74
2022/03/24 05:05:02;;;;;;;33.87;22.67;;;;;;;5.58;55.86;101440.56;5075359;28;20235;-75
2022/03/24 05:07:28;;;;;;;28.73;21.47;;;;;;;5.53;55.87;101444.75;5075432;28;20208;-75
2022/03/24 05:09:55;;;;;;;29.13;21.10;;;;;;;5.45;56.07;101442.06;5075615;28;20227;-75
2022/03/24 05:12:22;;;;;;;28.47;20.80;;;;;;;5.37;56.28;101431.56;5075720;28;20262;-74
2022/03/24 05:14:50;;;;;;;23.90;21.33;;;;;;;5.23;56.84;101420.06;5075390;28;20208;-75
2022/03/24 05:17:16;;;;;;;27.23;21.73;;;;;;;5.18;57.19;101406.19;5075532;28;20200;-75
2022/03/24 05:19:44;;;;;;;24.03;21.40;;;;;;;5.19;57.10;101407.91;5075350;28;20220;-74
2022/03/24 05:22:11;;;;;;;32.80;22.67;;;;;;;5.13;57.69;101406.09;5075341;28;20311;-75
2022/03/24 05:24:38;;;;;;;26.13;20.23;;;;;;;5.14;57.26;101401.78;5075139;28;20259;-75
2022/03/24 05:27:05;;;;;;;28.07;20.43;;;;;;;5.01;58.21;101386.88;5075465;28;20333;-75
2022/03/24 05:29:32;;;;;;;25.17;20.87;;;;;;;4.87;58.39;101386.59;5075242;28;20224;-75
2022/03/24 05:32:00;;;;;;;27.70;21.50;;;;;;;4.68;59.29;101369.84;5075125;28;20204;-75
2022/03/24 05:34:26;;;;;;;28.93;22.43;;;;;;;4.44;60.90;101334.91;5074834;28;20211;-74
2022/03/24 05:36:53;;;;;;;25.63;20.63;;;;;;;4.48;60.17;101313.44;5074961;28;20251;-74
2022/03/24 05:39:20;;;;;;;27.20;20.43;;;;;;;4.50;60.73;101306.59;5074572;28;20734;-75
2022/03/24 05:41:46;;;;;;;28.57;21.10;;;;;;;4.38;60.52;101303.75;5075162;28;20204;-74
2022/03/24 05:44:13;;;;;;;23.87;21.37;;;;;;;4.23;61.78;101300.84;5074923;28;20235;-75
2022/03/24 05:46:41;;;;;;;28.07;22.27;;;;;;;4.20;61.30;101275.78;5074810;28;20224;-75
2022/03/24 05:49:11;;;;;;;25.63;23.00;;;;;;;4.16;62.27;101264.56;5074972;28;20627;-75
2022/03/24 05:51:37;;;;;;;25.10;20.80;;;;;;;4.26;61.72;101263.03;5074986;28;20213;-75
2022/03/24 05:54:04;;;;;;;26.77;21.53;;;;;;;4.22;62.91;101261.19;5074670;28;20285;-75
2022/03/24 05:56:30;;;;;;;23.23;20.70;;;;;;;4.26;62.28;101249.22;5074882;28;20218;-75
2022/03/24 05:58:57;;;;;;;27.93;21.43;;;;;;;4.32;62.34;101249.34;5074728;28;20246;-75
2022/03/24 06:01:24;;;;;;;29.77;21.93;;;;;;;4.54;63.09;101232.53;5074239;28;20292;-75
2022/03/24 06:03:52;;;;;;;33.37;22.97;;;;;;;4.41;60.52;101279.69;5074274;28;20666;-74
2022/03/24 06:06:22;;;;;;;32.77;22.53;;;;;;;4.08;61.00;101293.63;5074581;28;20221;-75
2022/03/24 06:08:52;;;;;;;30.23;23.00;;;;;;;4.14;62.54;101271.41;5074406;28;20252;-74
2022/03/24 06:11:20;;;;;;;34.97;21.73;;;;;;;4.32;62.12;101270.91;5073293;28;20196;-75
2022/03/24 06:13:47;;;;;;;29.87;22.33;;;;;;;4.48;61.80;101269.50;5074187;28;20204;-74
2022/03/24 06:16:14;;;;;;;30.73;23.97;;;;;;;4.62;60.81;101282.69;5074099;28;20739;-74
2022/03/24 06:18:41;;;;;;;34.93;24.40;;;;;;;4.73;60.53;101311.31;5074280;28;20229;-75
2022/03/24 06:21:08;;;;;;;29.87;22.80;;;;;;;4.72;60.05;101328.56;5073676;28;20662;-75
2022/03/24 06:23:37;;;;;;;31.47;23.23;;;;;;;4.61;60.24;101334.38;5073871;28;20196;-74
2022/03/24 06:26:03;;;;;;;31.73;23.93;;;;;;;4.68;59.85;101342.28;5073668;28;20215;-74
2022/03/24 06:28:30;;;;;;;39.93;24.97;;;;;;;4.77;59.18;101354.50;5073534;28;20209;-75
2022/03/24 06:30:56;;;;;;;35.70;25.67;;;;;;;4.72;58.81;101382.00;5073139;28;20284;-75
2022/03/24 06:33:23;;;;;;;30.33;24.20;;;;;;;4.83;59.51;101374.44;5072236;28;20258;-74
2022/03/24 06:35:50;;;;;;;36.97;23.83;;;;;;;4.78;58.96;101380.41;5073682;28;20204;-75
2022/03/24 06:38:18;;;;;;;33.70;24.77;;;;;;;4.87;59.04;101378.84;5073458;28;20200;-76
2022/03/24 06:40:46;;;;;;;35.23;24.27;;;;;;;4.85;59.21;101381.38;5073595;28;20276;-75
2022/03/24 06:43:12;;;;;;;30.03;24.90;;;;;;;4.93;59.33;101385.00;5073534;28;20580;-75
2022/03/24 06:45:39;;;;;;;33.20;24.23;;;;;;;5.01;58.92;101392.91;5072968;28;20230;-75
2022/03/24 06:48:07;;;;;;;31.83;24.40;;;;;;;4.97;59.76;101383.34;5073293;28;20196;-74
2022/03/24 06:50:34;;;;;;;31.13;24.13;;;;;;;4.96;60.25;101373.84;5073419;28;20320;-75
2022/03/24 06:53:01;;;;;;;28.10;23.80;;;;;;;4.89;61.25;101357.31;5073345;28;20197;-74
2022/03/24 06:55:27;;;;;;;33.37;24.47;;;;;;;4.92;61.41;101334.09;5073123;28;20227;-74
2022/03/24 06:57:55;;;;;;;31.23;25.30;;;;;;;4.91;61.71;101323.72;5072804;28;20270;-74
2022/03/24 07:00:23;;;;;;;34.60;24.93;;;;;;;4.96;61.62;101312.63;5073021;28;20225;-74
2022/03/24 07:02:49;;;;;;;33.83;24.80;;;;;;;5.06;62.35;101305.03;5072598;28;20665;-74
2022/03/24 07:05:16;;;;;;;29.77;25.37;;;;;;;5.13;61.93;101310.34;5072905;28;20200;-74
2022/03/24 07:07:43;;;;;;;38.87;25.93;;;;;;;5.09;62.94;101302.47;5072767;28;20288;-74
2022/03/24 07:10:10;;;;;;;38.03;26.50;;;;;;;5.16;62.76;101306.94;5072854;28;20219;-74
2022/03/24 07:12:37;;;;;;;33.03;25.97;;;;;;;5.25;62.65;101304.50;5072605;28;20200;-75
2022/03/24 07:15:08;;;;;;;35.77;25.53;;;;;;;5.33;61.28;101331.41;5072725;28;20200;-74
2022/03/24 07:17:34;;;;;;;33.80;26.03;;;;;;;5.44;62.81;101331.56;5072414;28;20580;-75
2022/03/24 07:20:03;;;;;;;32.90;26.77;;;;;;;5.45;63.68;101312.59;5072874;28;20303;-75
2022/03/24 07:22:32;;;;;;;35.50;26.83;;;;;;;5.44;63.17;101310.84;5072578;28;20208;-75
2022/03/24 07:24:58;;;;;;;35.47;26.93;;;;;;;5.46;63.04;101310.88;5072584;28;20197;-74
2022/03/24 07:27:25;;;;;;;33.90;26.60;;;;;;;5.49;63.62;101309.22;5072393;28;20220;-74
2022/03/24 07:29:51;;;;;;;33.83;26.40;;;;;;;5.52;62.47;101326.50;5072113;28;20625;-74
2022/03/24 07:32:20;;;;;;;36.47;25.83;;;;;;;5.51;62.30;101338.59;5072430;28;20209;-74
2022/03/24 07:34:46;;;;;;;35.27;26.27;;;;;;;5.53;61.65;101359.31;5070318;28;20282;-75
2022/03/24 07:37:13;;;;;;;43.53;26.07;;;;;;;5.56;60.78;101386.13;5072543;28;20255;-75
2022/03/24 07:39:39;;;;;;;40.47;26.17;;;;;;;5.56;60.62;101408.56;5071916;28;20217;-75
2022/03/24 07:42:07;;;;;;;36.10;25.97;;;;;;;5.59;60.85;101406.06;5072251;28;20200;-75
2022/03/24 07:44:34;;;;;;;34.57;26.30;;;;;;;5.60;60.97;101404.34;5071124;28;20204;-76
2022/03/24 07:47:01;;;;;;;35.77;25.23;;;;;;;5.58;60.88;101405.16;5072258;28;20228;-75
2022/03/24 07:49:28;;;;;;;37.77;24.67;;;;;;;5.63;61.93;101388.81;5072258;28;20220;-75
2022/03/24 07:51:55;;;;;;;35.20;25.67;;;;;;;5.68;62.30;101385.47;5072256;28;20250;-76
2022/03/24 07:54:39;;;;;;;33.20;26.47;;;;;;;5.75;62.14;101376.97;5071612;28;20204;-75
2022/03/24 07:57:06;;;;;;;40.50;26.13;;;;;;;5.82;61.99;101393.47;5070527;28;20253;-76
2022/03/24 07:59:32;;;;;;;29.60;25.00;;;;;;;5.88;61.41;101393.56;5071941;28;20216;-76
2022/03/24 08:01:59;;;;;;;33.87;26.30;;;;;;;5.97;61.99;101387.69;5072010;28;20197;-76
2022/03/24 08:04:25;;;;;;;40.63;27.47;;;;;;;6.04;61.41;101391.25;5071800;28;20227;-76
2022/03/24 08:06:53;;;;;;;35.43;26.23;;;;;;;6.12;61.36;101400.88;5071645;28;20219;-77
2022/03/24 08:09:19;;;;;;;37.30;26.17;;;;;;;6.19;62.03;101406.16;5071782;28;20236;-76
2022/03/24 08:11:48;;;;;;;39.13;26.87;;;;;;;6.24;60.66;101420.91;5073855;28;20211;-76
2022/03/24 08:14:14;;;;;;;36.67;27.07;;;;;;;6.30;61.99;101418.44;5071920;28;20203;-77
2022/03/24 08:16:41;;;;;;;43.00;27.53;;;;;;;6.38;61.11;101408.16;5071972;28;20201;-76
2022/03/24 08:19:07;;;;;;;32.07;26.93;;;;;;;6.48;61.77;101420.41;5073337;28;20415;-77
2022/03/24 08:21:34;;;;;;;38.90;27.97;;;;;;;6.61;60.71;101437.00;5075214;28;20207;-77
2022/03/24 08:24:02;;;;;;;42.40;27.80;;;;;;;6.70;60.34;101446.63;5073059;28;20197;-76
2022/03/24 08:26:28;;;;;;;43.80;27.57;;;;;;;6.81;59.47;101480.50;5071539;28;20654;-75
2022/03/24 08:28:57;;;;;;;39.33;29.13;;;;;;;6.83;61.40;101476.22;5071461;28;20221;-76
2022/03/24 08:31:23;;;;;;;48.57;29.03;;;;;;;6.93;60.15;101465.94;5071701;28;20197;-76
2022/03/24 08:33:50;;;;;;;35.60;27.10;;;;;;;7.04;59.85;101491.19;5070947;28;20193;-75
2022/03/24 08:36:16;;;;;;;47.40;28.27;;;;;;;7.10;59.79;101489.53;5071466;28;20193;-75
2022/03/24 08:38:42;;;;;;;46.70;29.00;;;;;;;7.18;60.03;101478.38;5071045;28;20225;-76
2022/03/24 08:41:10;;;;;;;35.53;26.70;;;;;;;7.33;58.38;101488.94;5071729;28;20197;-76
2022/03/24 08:43:37;;;;;;;33.27;25.63;;;;;;;7.44;58.13;101533.22;5068997;28;20200;-75
2022/03/24 08:46:03;;;;;;;38.50;27.30;;;;;;;7.56;57.61;101568.00;5071578;28;20220;-76
2022/03/24 08:48:30;;;;;;;31.00;26.20;;;;;;;7.63;56.50;101568.06;5071498;28;20204;-77
2022/03/24 08:50:57;;;;;;;35.20;25.17;;;;;;;7.70;56.98;101595.88;5069025;28;20196;-76
2022/03/24 08:53:23;;;;;;;33.03;26.53;;;;;;;7.76;57.34;101586.41;5070980;28;20564;-76
2022/03/24 08:55:50;;;;;;;38.23;25.80;;;;;;;7.86;55.70;101605.59;5071305;28;20205;-76
2022/03/24 08:58:18;;;;;;;36.47;26.33;;;;;;;7.93;57.59;101604.81;5071523;28;20204;-76
2022/03/24 09:00:45;;;;;;;39.43;26.77;;;;;;;8.00;57.06;101589.28;5071223;28;20228;-76
2022/03/24 09:03:12;;;;;;;44.33;26.80;;;;;;;8.07;56.60;101597.16;5071340;28;20688;-76
2022/03/24 09:05:38;;;;;;;37.50;27.10;;;;;;;8.16;56.14;101618.03;5071174;28;20270;-76
2022/03/24 09:08:06;;;;;;;32.10;25.83;;;;;;;8.28;56.48;101629.41;5071600;28;20270;-77
2022/03/24 09:10:33;;;;;;;41.20;26.47;;;;;;;8.42;54.50;101634.78;5071464;28;20243;-76
2022/03/24 09:12:59;;;;;;;40.37;27.30;;;;;;;8.50;55.90;101652.22;5071410;28;20285;-76
2022/03/24 09:15:27;;;;;;;36.17;26.47;;;;;;;8.59;54.56;101671.38;5071573;28;20319;-76
2022/03/24 09:17:53;;;;;;;39.07;27.90;;;;;;;8.68;58.30;101628.09;5071259;28;20614;-77
2022/03/24 09:20:22;;;;;;;35.90;27.90;;;;;;;8.79;58.41;101559.59;5071917;28;20216;-77
2022/03/24 09:22:50;;;;;;;31.57;25.03;;;;;;;8.86;57.02;101582.19;5072229;28;20200;-76
2022/03/24 09:25:18;;;;;;;32.07;26.00;;;;;;;8.95;57.61;101590.09;5068938;28;20201;-76
2022/03/24 09:27:46;;;;;;;41.67;28.43;;;;;;;9.08;56.83;101585.84;5071801;28;20316;-77
2022/03/24 09:30:15;;;;;;;38.23;27.50;;;;;;;9.17;56.45;101629.28;5071345;28;20221;-76
2022/03/24 09:32:45;;;;;;;38.27;28.00;;;;;;;9.31;56.52;101619.81;5072046;28;20229;-77
2022/03/24 09:35:11;;;;;;;33.20;26.67;;;;;;;9.39;55.76;101625.94;5071425;28;20658;-76
2022/03/24 09:37:38;;;;;;;43.83;29.03;;;;;;;9.49;55.58;101632.06;5069147;28;20197;-76
2022/03/24 09:40:08;;;;;;;34.83;28.67;;;;;;;9.59;54.87;101648.63;5071671;28;20751;-76
2022/03/24 09:42:35;;;;;;;36.77;27.83;;;;;;;9.67;55.30;101650.41;5071609;28;20193;-76
2022/03/24 09:45:04;;;;;;;38.63;27.70;;;;;;;9.73;54.90;101679.13;5073424;28;20205;-76
2022/03/24 09:47:31;;;;;;;43.13;28.10;;;;;;;9.84;52.91;101722.63;5075402;28;20224;-77
2022/03/24 09:49:59;;;;;;;37.83;27.60;;;;;;;9.91;52.70;101729.59;5072805;28;20227;-76
2022/03/24 09:52:26;;;;;;;41.00;27.00;;;;;;;10.04;53.36;101740.97;5075253;28;20204;-77
2022/03/24 09:54:54;;;;;;;34.87;27.77;;;;;;;10.22;54.15;101719.28;5075318;28;20658;-77
2022/03/24 09:57:21;;;;;;;37.87;27.73;;;;;;;10.39;53.75;101740.25;5075041;28;20756;-77
2022/03/24 09:59:47;;;;;;;38.53;26.77;;;;;;;10.52;52.04;101758.56;5075305;28;20214;-77
2022/03/24 10:02:14;;;;;;;38.47;26.93;;;;;;;10.67;53.11;101746.41;5075677;28;20200;-77
2022/03/24 10:04:45;;;;;;;40.27;26.80;;;;;;;10.75;50.46;101783.00;5075700;28;20662;-77
2022/03/24 10:07:13;;;;;;;32.83;25.73;;;;;;;10.78;50.00;101836.06;5075535;28;20282;-77
2022/03/24 10:09:42;;;;;;;38.87;27.07;;;;;;;10.84;48.89;101867.47;5075282;28;20303;-76
2022/03/24 10:12:17;;;;;;;39.90;26.30;;;;;;;10.88;48.50;101890.13;5075915;28;20563;-76
2022/03/24 10:14:43;;;;;;;35.67;27.23;;;;;;;10.91;51.33;101889.25;5073793;28;20217;-76
2022/03/24 10:17:11;;;;;;;40.90;27.47;;;;;;;10.99;49.30;101832.66;5075820;28;20202;-77
2022/03/24 10:19:38;;;;;;;36.43;24.77;;;;;;;11.10;48.97;101864.91;5073854;28;20220;-77
2022/03/24 10:22:09;;;;;;;35.93;25.73;;;;;;;11.20;49.68;101864.91;5075934;28;20197;-77
2022/03/24 10:24:42;;;;;;;32.00;26.67;;;;;;;11.26;49.62;101870.16;5074806;28;20194;-76
2022/03/24 10:27:11;;;;;;;39.27;25.37;;;;;;;11.31;50.76;101878.88;5075974;28;20560;-76
2022/03/24 10:29:38;;;;;;;34.53;24.47;;;;;;;11.49;50.80;101820.50;5072836;28;20214;-77
2022/03/24 10:32:14;;;;;;;30.67;24.73;;;;;;;11.61;49.88;101822.22;5076227;28;20199;-77
2022/03/24 10:34:41;;;;;;;36.33;25.13;;;;;;;11.74;49.41;101857.97;5073107;28;20200;-77
2022/03/24 10:37:09;;;;;;;32.73;23.40;;;;;;;11.90;48.32;101871.94;5075838;28;20668;-76
2022/03/24 10:39:37;;;;;;;29.43;24.77;;;;;;;11.98;47.44;101908.56;5075735;28;20240;-76
2022/03/24 10:42:14;;;;;;;36.03;24.43;;;;;;;12.05;46.83;101957.38;5075796;28;20208;-77
2022/03/24 10:45:17;;;;;;;29.23;24.00;;;;;;;12.09;46.37;101978.34;5072875;28;20651;-77
2022/03/24 10:47:49;;;;;;;32.43;22.90;;;;;;;12.24;45.67;101960.88;5067690;28;20250;-77
2022/03/24 10:50:20;;;;;;;28.90;22.93;;;;;;;12.29;43.80;102022.84;5075516;28;20235;-77
2022/03/24 10:52:47;;;;;;;25.50;21.20;;;;;;;12.38;44.47;102031.56;5075154;28;20201;-77
2022/03/24 10:55:22;;;;;;;28.30;22.37;;;;;;;12.48;45.05;102010.56;5076065;28;20256;-77
2022/03/24 10:57:50;;;;;;;27.97;23.67;;;;;;;12.63;44.96;101999.22;5075683;28;20688;-77
2022/03/24 11:00:16;;;;;;;26.30;22.50;;;;;;;12.70;44.08;102031.50;5076282;28;20229;-76
2022/03/24 11:02:45;;;;;;;24.67;21.70;;;;;;;12.91;45.21;102036.69;5074534;28;20249;-77
2022/03/24 11:05:13;;;;;;;25.90;20.27;;;;;;;13.10;42.28;102060.22;5074818;28;20200;-77
2022/03/24 11:07:40;;;;;;;29.83;21.40;;;;;;;13.26;42.47;102101.28;5072445;28;20254;-77
2022/03/24 11:10:13;;;;;;;24.57;21.63;;;;;;;13.43;40.98;102121.34;5076595;28;20246;-77
2022/03/24 11:12:43;;;;;;;27.30;23.10;;;;;;;13.56;43.09;102124.78;5072280;28;20201;-78
2022/03/24 11:15:12;;;;;;;24.37;21.70;;;;;;;13.70;43.03;102107.25;5072859;28;20211;-76
2022/03/24 11:17:40;;;;;;;27.13;21.87;;;;;;;13.82;42.78;102114.19;5070211;28;20211;-77